Time;durP1;ratioP1;P1;durP2;ratioP2;P2;SDS_P1;SDS_P2;PMS_P1;PMS_P2;Temp;Humidity;BMP_temperature;BMP_pressure;BME280_temperature;BME280_humidity;BME280_pressure;Samples;Min_cycle;Max_cycle;Signal;HPM_P1;HPM_P2
2022/06/11 00:00:32;;;;;;;5.15;2.78;;;;;;;;;;5065081;28;20219;-54
2022/06/11 00:02:59;;;;;;;2.78;2.35;;;;;;;;;;5066285;28;20239;-54
2022/06/11 00:05:25;;;;;;;3.03;2.55;;;;;;;;;;5066592;28;20243;-55
2022/06/11 00:07:51;;;;;;;4.25;3.10;;;;;;;;;;5064226;28;20232;-54
2022/06/11 00:10:19;;;;;;;6.03;3.70;;;;;;;;;;5063215;28;20267;-53
2022/06/11 00:12:46;;;;;;;4.47;3.33;;;;;;;;;;5062019;28;20247;-54
2022/06/11 00:15:12;;;;;;;5.65;3.15;;;;;;;;;;5057294;28;20250;-54
2022/06/11 00:17:39;;;;;;;3.67;2.88;;;;;;;;;;5060066;28;20242;-54
2022/06/11 00:20:06;;;;;;;5.05;2.75;;;;;;;;;;5064111;28;20237;-55
2022/06/11 00:22:35;;;;;;;3.28;2.75;;;;;;;;;;5067106;28;20245;-54
2022/06/11 00:25:01;;;;;;;3.72;3.25;;;;;;;;;;5063738;28;20314;-54
2022/06/11 00:27:29;;;;;;;5.07;3.28;;;;;;;;;;5066849;28;20238;-54
2022/06/11 00:29:55;;;;;;;3.13;2.72;;;;;;;;;;5065152;28;20546;-54
2022/06/11 00:32:22;;;;;;;9.23;3.85;;;;;;;;;;5064893;28;20239;-56
2022/06/11 00:34:49;;;;;;;6.05;4.55;;;;;;;;;;5067456;28;20306;-54
2022/06/11 00:37:17;;;;;;;3.80;3.40;;;;;;;;;;5048237;28;24954;-54
2022/06/11 00:39:44;;;;;;;5.75;3.35;;;;;;;;;;5058365;28;20227;-54
2022/06/11 00:42:15;;;;;;;4.28;3.83;;;;;;;;;;5062342;28;20250;-54
2022/06/11 00:44:42;;;;;;;4.38;3.28;;;;;;;;;;5063490;28;20625;-54
2022/06/11 00:47:14;;;;;;;5.05;3.85;;;;;;;;;;5058010;28;20342;-54
2022/06/11 00:49:42;;;;;;;7.00;3.83;;;;;;;;;;5067336;28;20230;-54
2022/06/11 00:52:26;;;;;;;6.30;3.42;;;;;;;;;;5064887;28;20227;-54
2022/06/11 00:54:57;;;;;;;6.60;3.63;;;;;;;;;;5058603;28;20227;-53
2022/06/11 00:57:24;;;;;;;5.95;3.22;;;;;;;;;;5061701;28;20235;-55
2022/06/11 00:59:54;;;;;;;6.45;3.55;;;;;;;;;;5062868;28;20230;-54
2022/06/11 01:02:20;;;;;;;4.75;4.18;;;;;;;;;;5067574;28;20327;-58
2022/06/11 01:04:49;;;;;;;5.28;3.55;;;;;;;;;;5067188;28;20701;-54
2022/06/11 01:07:24;;;;;;;6.85;3.22;;;;;;;;;;5066115;28;20243;-55
2022/06/11 01:09:57;;;;;;;5.00;3.65;;;;;;;;;;5058342;28;20925;-54
2022/06/11 01:12:27;;;;;;;5.40;3.40;;;;;;;;;;5063497;28;20237;-54
2022/06/11 01:15:01;;;;;;;3.95;3.58;;;;;;;;;;5062476;28;20312;-54
2022/06/11 01:17:30;;;;;;;5.70;3.33;;;;;;;;;;5060679;28;20250;-54
2022/06/11 01:20:08;;;;;;;7.30;3.50;;;;;;;;;;5052342;28;20228;-55
2022/06/11 01:22:49;;;;;;;3.90;3.60;;;;;;;;;;5062362;28;20713;-54
2022/06/11 01:25:20;;;;;;;5.22;3.35;;;;;;;;;;5059698;28;20238;-54
2022/06/11 01:27:54;;;;;;;4.53;3.35;;;;;;;;;;5065408;28;20235;-54
2022/06/11 01:30:23;;;;;;;5.80;3.47;;;;;;;;;;5062239;28;20231;-54
2022/06/11 01:32:54;;;;;;;4.20;3.78;;;;;;;;;;5061022;28;20241;-54
2022/06/11 01:35:38;;;;;;;5.72;4.13;;;;;;;;;;5064694;28;20230;-53
2022/06/11 01:38:06;;;;;;;4.22;3.50;;;;;;;;;;5055117;28;20231;-54
2022/06/11 01:40:39;;;;;;;3.65;3.30;;;;;;;;;;5057805;28;20772;-54
2022/06/11 01:43:13;;;;;;;5.35;3.40;;;;;;;;;;5058596;28;20239;-54
2022/06/11 01:45:41;;;;;;;7.78;4.40;;;;;;;;;;5066414;28;20236;-54
2022/06/11 01:48:11;;;;;;;3.92;3.45;;;;;;;;;;5065231;28;20234;-54
2022/06/11 01:50:39;;;;;;;4.90;3.80;;;;;;;;;;5062967;28;20234;-54
2022/06/11 01:53:14;;;;;;;3.70;3.40;;;;;;;;;;5058485;28;20235;-55
2022/06/11 01:55:50;;;;;;;5.18;3.65;;;;;;;;;;5066163;28;20647;-55
2022/06/11 01:58:22;;;;;;;4.70;3.42;;;;;;;;;;5065206;28;20253;-54
2022/06/11 02:00:52;;;;;;;3.67;3.30;;;;;;;;;;5055190;28;20314;-54
2022/06/11 02:03:29;;;;;;;5.13;3.08;;;;;;;;;;5059240;28;20231;-53
2022/06/11 02:06:04;;;;;;;3.53;3.20;;;;;;;;;;5055396;28;20315;-54
2022/06/11 02:08:35;;;;;;;5.75;2.80;;;;;;;;;;5058519;28;20235;-54
2022/06/11 02:11:04;;;;;;;4.70;3.25;;;;;;;;;;5054388;28;20712;-54
2022/06/11 02:13:33;;;;;;;4.15;2.75;;;;;;;;;;5059784;28;20243;-54
2022/06/11 02:16:06;;;;;;;3.55;2.58;;;;;;;;;;5055795;28;20228;-54
2022/06/11 02:18:32;;;;;;;4.38;2.83;;;;;;;;;;5053567;28;20334;-55
2022/06/11 02:21:01;;;;;;;4.43;3.30;;;;;;;;;;5063386;28;20229;-54
2022/06/11 02:23:30;;;;;;;5.65;3.45;;;;;;;;;;5061793;28;20263;-54
2022/06/11 02:25:59;;;;;;;3.20;2.92;;;;;;;;;;5055071;28;20763;-55
2022/06/11 02:28:28;;;;;;;4.35;3.40;;;;;;;;;;5063073;28;20241;-54
2022/06/11 02:30:55;;;;;;;4.75;2.83;;;;;;;;;;5063680;28;20231;-54
2022/06/11 02:33:23;;;;;;;4.68;3.05;;;;;;;;;;5063505;28;20234;-55
2022/06/11 02:35:55;;;;;;;5.75;3.22;;;;;;;;;;5063554;28;20300;-55
2022/06/11 02:38:23;;;;;;;3.45;2.80;;;;;;;;;;5065494;28;20310;-55
2022/06/11 02:40:51;;;;;;;7.22;3.25;;;;;;;;;;5062541;28;20235;-53
2022/06/11 02:43:18;;;;;;;3.05;2.75;;;;;;;;;;5060165;28;20498;-54
2022/06/11 02:45:45;;;;;;;3.28;2.65;;;;;;;;;;5064318;28;20242;-54
2022/06/11 02:48:12;;;;;;;3.35;2.47;;;;;;;;;;5068121;28;20247;-54
2022/06/11 02:50:40;;;;;;;4.28;2.90;;;;;;;;;;5062813;28;20276;-53
2022/06/11 02:53:08;;;;;;;2.95;2.67;;;;;;;;;;5053144;28;20239;-53
2022/06/11 02:55:35;;;;;;;4.60;3.15;;;;;;;;;;5066205;28;20223;-55
2022/06/11 02:58:01;;;;;;;5.65;2.58;;;;;;;;;;5065640;28;20249;-54
2022/06/11 03:00:32;;;;;;;2.97;2.30;;;;;;;;;;5067785;28;20231;-55
2022/06/11 03:02:58;;;;;;;4.80;2.47;;;;;;;;;;5068576;28;20227;-53
2022/06/11 03:05:28;;;;;;;3.60;2.58;;;;;;;;;;5069023;28;20241;-54
2022/06/11 03:07:56;;;;;;;6.32;3.28;;;;;;;;;;5060264;28;20235;-53
2022/06/11 03:10:23;;;;;;;4.30;3.13;;;;;;;;;;5061640;28;20233;-54
2022/06/11 03:12:50;;;;;;;3.78;2.55;;;;;;;;;;5067852;28;20239;-55
2022/06/11 03:15:17;;;;;;;3.00;2.75;;;;;;;;;;5064934;28;20296;-54
2022/06/11 03:17:44;;;;;;;2.67;2.40;;;;;;;;;;5066508;28;20227;-54
2022/06/11 03:20:12;;;;;;;3.20;2.92;;;;;;;;;;5060383;28;20227;-54
2022/06/11 03:22:39;;;;;;;5.13;2.92;;;;;;;;;;5060176;28;20242;-54
2022/06/11 03:25:08;;;;;;;3.10;2.80;;;;;;;;;;5059903;28;20227;-54
2022/06/11 03:27:34;;;;;;;3.28;2.80;;;;;;;;;;5059262;28;20231;-54
2022/06/11 03:30:01;;;;;;;4.57;3.33;;;;;;;;;;5062513;28;20235;-54
2022/06/11 03:32:28;;;;;;;5.30;3.10;;;;;;;;;;5063129;28;20231;-55
2022/06/11 03:34:55;;;;;;;3.65;3.20;;;;;;;;;;5067136;28;20728;-54
2022/06/11 03:37:21;;;;;;;3.17;2.88;;;;;;;;;;5057683;28;20677;-54
2022/06/11 03:39:47;;;;;;;3.08;2.83;;;;;;;;;;5061275;28;20735;-54
2022/06/11 03:42:15;;;;;;;3.22;2.97;;;;;;;;;;5061318;28;20235;-55
2022/06/11 03:44:41;;;;;;;3.50;2.75;;;;;;;;;;5060211;28;20612;-53
2022/06/11 03:47:08;;;;;;;3.35;2.78;;;;;;;;;;5059871;28;20721;-55
2022/06/11 03:49:34;;;;;;;5.25;3.00;;;;;;;;;;5067732;28;20233;-54
2022/06/11 03:52:01;;;;;;;4.47;3.22;;;;;;;;;;5063728;28;20235;-55
2022/06/11 03:54:27;;;;;;;3.47;3.17;;;;;;;;;;5061603;28;20643;-53
2022/06/11 03:56:54;;;;;;;4.22;2.60;;;;;;;;;;5066218;28;20234;-53
2022/06/11 03:59:21;;;;;;;5.43;2.95;;;;;;;;;;5059642;28;20261;-53
2022/06/11 04:01:48;;;;;;;3.42;2.80;;;;;;;;;;5065793;28;20744;-54
2022/06/11 04:04:15;;;;;;;2.47;2.30;;;;;;;;;;5066259;28;20659;-55
2022/06/11 04:06:43;;;;;;;2.90;2.60;;;;;;;;;;5067278;28;20227;-54
2022/06/11 04:09:12;;;;;;;3.55;3.08;;;;;;;;;;5058194;28;20237;-55
2022/06/11 04:11:39;;;;;;;4.00;2.80;;;;;;;;;;5066698;28;20227;-56
2022/06/11 04:14:05;;;;;;;3.88;3.25;;;;;;;;;;5063288;28;20232;-54
2022/06/11 04:16:35;;;;;;;3.17;2.95;;;;;;;;;;5064914;28;20254;-55
2022/06/11 04:19:02;;;;;;;6.32;3.35;;;;;;;;;;5066098;28;20624;-54
2022/06/11 04:21:29;;;;;;;3.25;2.70;;;;;;;;;;5066534;28;20272;-54
2022/06/11 04:23:57;;;;;;;4.50;3.83;;;;;;;;;;5063507;28;20261;-55
2022/06/11 04:26:25;;;;;;;3.35;2.92;;;;;;;;;;5064763;28;20231;-55
2022/06/11 04:28:52;;;;;;;3.53;3.05;;;;;;;;;;5048228;28;20227;-55
2022/06/11 04:31:19;;;;;;;3.45;3.15;;;;;;;;;;5056293;28;20596;-55
2022/06/11 04:33:48;;;;;;;7.68;2.80;;;;;;;;;;5054265;28;20699;-54
2022/06/11 04:36:15;;;;;;;5.40;3.58;;;;;;;;;;5061492;28;20235;-55
2022/06/11 04:38:41;;;;;;;3.45;2.90;;;;;;;;;;5066329;28;20824;-54
2022/06/11 04:41:08;;;;;;;3.75;2.92;;;;;;;;;;5059751;28;20851;-55
2022/06/11 04:43:34;;;;;;;4.38;3.10;;;;;;;;;;5063579;28;20239;-54
2022/06/11 04:46:01;;;;;;;3.80;3.40;;;;;;;;;;5061868;28;20234;-55
2022/06/11 04:48:27;;;;;;;3.97;3.28;;;;;;;;;;5059641;28;20243;-54
2022/06/11 04:50:55;;;;;;;4.63;3.30;;;;;;;;;;5057257;28;20227;-54
2022/06/11 04:53:21;;;;;;;3.58;2.90;;;;;;;;;;5065196;28;20610;-53
2022/06/11 04:55:48;;;;;;;3.83;2.92;;;;;;;;;;5061878;28;20237;-54
2022/06/11 04:58:14;;;;;;;6.90;3.03;;;;;;;;;;5057383;28;20727;-54
2022/06/11 05:00:41;;;;;;;5.75;3.42;;;;;;;;;;5061872;28;20422;-54
2022/06/11 05:03:07;;;;;;;4.05;2.97;;;;;;;;;;5060203;28;20323;-53
2022/06/11 05:05:34;;;;;;;3.58;2.88;;;;;;;;;;5066528;28;20241;-54
2022/06/11 05:08:02;;;;;;;4.63;3.30;;;;;;;;;;5064408;28;20232;-54
2022/06/11 05:10:29;;;;;;;3.08;2.80;;;;;;;;;;5066660;28;20235;-54
2022/06/11 05:12:56;;;;;;;2.80;2.60;;;;;;;;;;5063816;28;20240;-55
2022/06/11 05:15:22;;;;;;;5.18;3.33;;;;;;;;;;5064403;28;20234;-54
2022/06/11 05:17:49;;;;;;;3.35;2.83;;;;;;;;;;5066221;28;25101;-53
2022/06/11 05:20:16;;;;;;;5.03;3.33;;;;;;;;;;5055993;28;20242;-55
2022/06/11 05:22:43;;;;;;;4.15;3.25;;;;;;;;;;5055588;28;20232;-54
2022/06/11 05:25:11;;;;;;;3.47;2.88;;;;;;;;;;5060012;28;20228;-54
2022/06/11 05:27:40;;;;;;;4.05;3.00;;;;;;;;;;5066893;28;20732;-54
2022/06/11 05:30:08;;;;;;;3.90;3.00;;;;;;;;;;5052415;28;20235;-54
2022/06/11 05:32:37;;;;;;;5.13;3.35;;;;;;;;;;5062190;28;20239;-53
2022/06/11 05:35:05;;;;;;;7.28;3.28;;;;;;;;;;5055632;28;20255;-54
2022/06/11 05:37:32;;;;;;;3.78;3.47;;;;;;;;;;5065670;28;20230;-54
2022/06/11 05:39:58;;;;;;;4.47;3.00;;;;;;;;;;5055952;28;20233;-54
2022/06/11 05:42:26;;;;;;;7.50;3.97;;;;;;;;;;5061957;28;20242;-54
2022/06/11 05:44:53;;;;;;;8.52;3.85;;;;;;;;;;5063305;28;20334;-54
2022/06/11 05:47:21;;;;;;;5.20;3.75;;;;;;;;;;5062031;28;20243;-54
2022/06/11 05:49:51;;;;;;;2.97;2.78;;;;;;;;;;5064595;28;20804;-54
2022/06/11 05:52:19;;;;;;;6.75;3.38;;;;;;;;;;5058543;28;20238;-55
2022/06/11 05:54:47;;;;;;;5.32;3.33;;;;;;;;;;5052585;28;20227;-54
2022/06/11 05:57:15;;;;;;;3.95;3.28;;;;;;;;;;5064466;28;20245;-54
2022/06/11 05:59:45;;;;;;;4.00;2.85;;;;;;;;;;5059285;28;20235;-53
2022/06/11 06:02:13;;;;;;;7.78;3.40;;;;;;;;;;5062654;28;20235;-54
2022/06/11 06:04:39;;;;;;;5.95;3.35;;;;;;;;;;5063550;28;20227;-54
2022/06/11 06:07:06;;;;;;;4.15;3.75;;;;;;;;;;5061919;28;20313;-54
2022/06/11 06:09:32;;;;;;;7.10;3.55;;;;;;;;;;5057719;28;20234;-55
2022/06/11 06:11:59;;;;;;;3.65;3.35;;;;;;;;;;5064321;28;20235;-54
2022/06/11 06:14:25;;;;;;;4.28;3.08;;;;;;;;;;5065324;28;20231;-54
2022/06/11 06:16:53;;;;;;;3.13;2.83;;;;;;;;;;5062936;28;20235;-55
2022/06/11 06:19:19;;;;;;;5.43;3.75;;;;;;;;;;5061266;28;20242;-56
2022/06/11 06:21:46;;;;;;;3.22;2.92;;;;;;;;;;5061728;28;20225;-54
2022/06/11 06:24:12;;;;;;;4.15;3.40;;;;;;;;;;5061512;28;20239;-54
2022/06/11 06:26:39;;;;;;;5.25;2.85;;;;;;;;;;5064270;28;20231;-54
2022/06/11 06:29:05;;;;;;;3.45;2.67;;;;;;;;;;5055400;28;20310;-54
2022/06/11 06:31:32;;;;;;;6.07;3.00;;;;;;;;;;5059821;28;20235;-54
2022/06/11 06:34:01;;;;;;;3.55;2.85;;;;;;;;;;5065331;28;20610;-54
2022/06/11 06:36:27;;;;;;;4.50;2.67;;;;;;;;;;5061005;28;20234;-53
2022/06/11 06:38:54;;;;;;;3.63;3.00;;;;;;;;;;5056071;28;20334;-54
2022/06/11 06:41:21;;;;;;;6.88;3.63;;;;;;;;;;5065856;28;20230;-55
2022/06/11 06:43:48;;;;;;;3.38;2.88;;;;;;;;;;5061599;28;20657;-54
2022/06/11 06:46:15;;;;;;;3.53;3.22;;;;;;;;;;5064141;28;20242;-54
2022/06/11 06:48:43;;;;;;;3.67;3.20;;;;;;;;;;5056618;28;20250;-55
2022/06/11 06:51:11;;;;;;;7.45;3.15;;;;;;;;;;5064291;28;20233;-55
2022/06/11 06:53:38;;;;;;;3.55;3.05;;;;;;;;;;5062999;28;20235;-53
2022/06/11 06:56:05;;;;;;;5.30;3.10;;;;;;;;;;5056788;28;20621;-57
2022/06/11 06:58:31;;;;;;;5.85;3.55;;;;;;;;;;5063573;28;20385;-54
2022/06/11 07:00:58;;;;;;;4.75;3.10;;;;;;;;;;5065642;28;20231;-54
2022/06/11 07:03:24;;;;;;;4.18;3.63;;;;;;;;;;5060791;28;20227;-53
2022/06/11 07:05:51;;;;;;;5.65;3.55;;;;;;;;;;5060347;28;20231;-54
2022/06/11 07:08:18;;;;;;;5.82;3.47;;;;;;;;;;5058117;28;20274;-54
2022/06/11 07:10:47;;;;;;;4.82;3.20;;;;;;;;;;5061562;28;20235;-54
2022/06/11 07:13:13;;;;;;;2.88;2.67;;;;;;;;;;5064080;28;20246;-55
2022/06/11 07:15:39;;;;;;;3.40;3.05;;;;;;;;;;5063871;28;20223;-53
2022/06/11 07:18:09;;;;;;;3.55;2.92;;;;;;;;;;5052127;28;20641;-54
2022/06/11 07:20:36;;;;;;;2.83;2.50;;;;;;;;;;5057499;28;20241;-53
2022/06/11 07:23:05;;;;;;;3.38;3.08;;;;;;;;;;5064070;28;20227;-55
2022/06/11 07:25:33;;;;;;;10.65;3.15;;;;;;;;;;5062453;28;20231;-55
2022/06/11 07:28:02;;;;;;;4.55;3.33;;;;;;;;;;5065266;28;20230;-55
2022/06/11 07:30:29;;;;;;;7.03;3.35;;;;;;;;;;5064562;28;20649;-54
2022/06/11 07:32:57;;;;;;;3.83;2.78;;;;;;;;;;5063880;28;20241;-55
2022/06/11 07:35:24;;;;;;;3.72;3.00;;;;;;;;;;5057692;28;20231;-54
2022/06/11 07:37:51;;;;;;;2.75;2.47;;;;;;;;;;5061672;28;20277;-55
2022/06/11 07:40:19;;;;;;;3.55;2.47;;;;;;;;;;5064188;28;20231;-55
2022/06/11 07:42:46;;;;;;;2.70;2.33;;;;;;;;;;5066955;28;20296;-54
2022/06/11 07:45:13;;;;;;;3.63;2.53;;;;;;;;;;5056455;28;20252;-53
2022/06/11 07:47:55;;;;;;;4.15;2.75;;;;;;;;;;5063192;28;20238;-53
2022/06/11 07:50:23;;;;;;;4.55;2.80;;;;;;;;;;5062627;28;20270;-53
2022/06/11 07:52:49;;;;;;;4.05;3.08;;;;;;;;;;5066807;28;20253;-54
2022/06/11 07:55:16;;;;;;;4.18;2.72;;;;;;;;;;5059950;28;20235;-53
2022/06/11 07:57:42;;;;;;;3.47;2.53;;;;;;;;;;5067104;28;20670;-55
2022/06/11 08:00:12;;;;;;;3.70;2.72;;;;;;;;;;5066221;28;20234;-53
2022/06/11 08:02:39;;;;;;;4.60;2.55;;;;;;;;;;5067447;28;20239;-54
2022/06/11 08:05:06;;;;;;;3.38;2.70;;;;;;;;;;5065315;28;20239;-54
2022/06/11 08:07:32;;;;;;;7.72;3.00;;;;;;;;;;5067259;28;20231;-55
2022/06/11 08:09:59;;;;;;;4.30;2.90;;;;;;;;;;5064124;28;20232;-55
2022/06/11 08:12:26;;;;;;;7.03;3.05;;;;;;;;;;5056546;28;20332;-55
2022/06/11 08:14:56;;;;;;;5.03;2.58;;;;;;;;;;5066565;28;20227;-55
2022/06/11 08:17:24;;;;;;;5.93;2.55;;;;;;;;;;5061409;28;20342;-55
2022/06/11 08:19:51;;;;;;;3.75;2.17;;;;;;;;;;5065535;28;20242;-55
2022/06/11 08:22:17;;;;;;;3.45;2.35;;;;;;;;;;5059244;28;20238;-55
2022/06/11 08:24:43;;;;;;;5.72;2.90;;;;;;;;;;5065422;28;20332;-54
2022/06/11 08:27:10;;;;;;;4.22;2.22;;;;;;;;;;5062012;28;20234;-54
2022/06/11 08:29:36;;;;;;;5.47;2.20;;;;;;;;;;5063476;28;20717;-53
2022/06/11 08:32:04;;;;;;;2.83;2.22;;;;;;;;;;5061738;28;20334;-54
2022/06/11 08:34:35;;;;;;;3.10;2.30;;;;;;;;;;5057206;28;20744;-54
2022/06/11 08:37:01;;;;;;;2.85;2.20;;;;;;;;;;5059572;28;20254;-54
2022/06/11 08:39:27;;;;;;;3.10;2.00;;;;;;;;;;5058940;28;20236;-54
2022/06/11 08:41:55;;;;;;;2.33;2.03;;;;;;;;;;5067906;28;20783;-54
2022/06/11 08:44:22;;;;;;;3.40;2.42;;;;;;;;;;5065413;28;20235;-54
2022/06/11 08:46:50;;;;;;;4.28;2.95;;;;;;;;;;5065723;28;20235;-53
2022/06/11 08:49:19;;;;;;;2.45;2.10;;;;;;;;;;5065867;28;20238;-54
2022/06/11 08:51:50;;;;;;;4.47;2.13;;;;;;;;;;5063360;28;20239;-55
2022/06/11 08:54:17;;;;;;;3.33;2.80;;;;;;;;;;5058845;28;20434;-55
2022/06/11 08:56:48;;;;;;;4.70;2.70;;;;;;;;;;5060882;28;20263;-53
2022/06/11 08:59:23;;;;;;;2.65;2.20;;;;;;;;;;5062435;28;20231;-55
2022/06/11 09:01:53;;;;;;;2.90;2.33;;;;;;;;;;5059398;28;22337;-55
2022/06/11 09:04:30;;;;;;;3.50;2.83;;;;;;;;;;5062818;28;20237;-55
2022/06/11 09:07:14;;;;;;;3.22;2.17;;;;;;;;;;5065850;28;20234;-55
2022/06/11 09:09:49;;;;;;;7.22;2.55;;;;;;;;;;5045135;28;20227;-54
2022/06/11 09:12:27;;;;;;;5.47;2.80;;;;;;;;;;5053599;28;20247;-54
2022/06/11 09:15:01;;;;;;;2.10;1.88;;;;;;;;;;5060599;28;20287;-54
2022/06/11 09:17:48;;;;;;;4.68;2.60;;;;;;;;;;5056968;28;20716;-54
2022/06/11 09:20:22;;;;;;;4.63;2.70;;;;;;;;;;5017298;28;20258;-54
2022/06/11 09:22:57;;;;;;;4.88;3.25;;;;;;;;;;5057310;28;20238;-54
2022/06/11 09:25:29;;;;;;;2.78;2.08;;;;;;;;;;5056861;28;20231;-55
2022/06/11 09:28:00;;;;;;;4.70;2.22;;;;;;;;;;5062075;28;20608;-54
2022/06/11 09:30:29;;;;;;;2.00;1.80;;;;;;;;;;5063641;28;20860;-54
2022/06/11 09:32:59;;;;;;;5.45;2.33;;;;;;;;;;5064658;28;20274;-54
2022/06/11 09:35:28;;;;;;;2.33;2.08;;;;;;;;;;5063288;28;20239;-55
2022/06/11 09:38:02;;;;;;;5.18;2.53;;;;;;;;;;5060350;28;20242;-54
2022/06/11 09:40:34;;;;;;;2.15;1.70;;;;;;;;;;5064402;28;20231;-55
2022/06/11 09:43:06;;;;;;;2.45;1.90;;;;;;;;;;5061013;28;20231;-55
2022/06/11 09:45:36;;;;;;;1.67;1.25;;;;;;;;;;5055168;28;20230;-54
2022/06/11 09:48:08;;;;;;;1.40;1.08;;;;;;;;;;5057313;28;20613;-55
2022/06/11 09:50:37;;;;;;;2.55;1.30;;;;;;;;;;5058025;28;20228;-55
2022/06/11 09:53:14;;;;;;;3.22;1.90;;;;;;;;;;5059662;28;20262;-54
2022/06/11 09:55:47;;;;;;;2.67;1.63;;;;;;;;;;5060948;28;20729;-54
2022/06/11 09:58:20;;;;;;;1.65;1.45;;;;;;;;;;5062889;28;20378;-55
2022/06/11 10:00:47;;;;;;;6.97;1.63;;;;;;;;;;5062552;28;20242;-54
2022/06/11 10:03:19;;;;;;;2.75;1.27;;;;;;;;;;5060822;28;20255;-54
2022/06/11 10:05:48;;;;;;;1.27;1.17;;;;;;;;;;5062536;28;20242;-53
2022/06/11 10:08:17;;;;;;;1.70;1.25;;;;;;;;;;5055221;28;20240;-54
2022/06/11 10:10:46;;;;;;;1.80;1.33;;;;;;;;;;5061517;28;20227;-54
2022/06/11 10:13:17;;;;;;;3.95;1.42;;;;;;;;;;5060149;28;20267;-54
2022/06/11 10:15:46;;;;;;;2.33;1.30;;;;;;;;;;5062407;28;20242;-54
2022/06/11 10:18:15;;;;;;;3.63;1.42;;;;;;;;;;5062015;28;20701;-54
2022/06/11 10:20:43;;;;;;;2.72;1.77;;;;;;;;;;5059985;28;20747;-54
2022/06/11 10:23:13;;;;;;;3.10;1.77;;;;;;;;;;5062221;28;20239;-55
2022/06/11 10:25:41;;;;;;;2.58;1.45;;;;;;;;;;5052365;28;20227;-55
2022/06/11 10:28:13;;;;;;;1.25;1.15;;;;;;;;;;5058892;28;20234;-54
2022/06/11 10:30:45;;;;;;;4.32;1.60;;;;;;;;;;5062754;28;20764;-54
2022/06/11 10:33:16;;;;;;;6.68;1.63;;;;;;;;;;5064342;28;20231;-54
2022/06/11 10:35:44;;;;;;;1.75;1.27;;;;;;;;;;5061961;28;20238;-53
2022/06/11 10:38:16;;;;;;;2.58;1.25;;;;;;;;;;5065352;28;20981;-54
2022/06/11 10:40:45;;;;;;;3.80;1.35;;;;;;;;;;5065652;28;20235;-54
2022/06/11 10:43:16;;;;;;;1.60;1.50;;;;;;;;;;5063875;28;20245;-54
2022/06/11 10:45:43;;;;;;;4.10;1.60;;;;;;;;;;5063009;28;20356;-54
2022/06/11 10:48:15;;;;;;;2.45;1.48;;;;;;;;;;5065490;28;20227;-54
2022/06/11 10:50:41;;;;;;;2.38;1.00;;;;;;;;;;5058831;28;20239;-53
2022/06/11 10:53:12;;;;;;;2.97;1.55;;;;;;;;;;5063651;28;20239;-55
2022/06/11 10:55:40;;;;;;;2.00;1.63;;;;;;;;;;5063090;28;20318;-54
2022/06/11 10:58:11;;;;;;;2.08;1.40;;;;;;;;;;5059602;28;20717;-54
2022/06/11 11:00:42;;;;;;;3.20;1.80;;;;;;;;;;5062135;28;20242;-55
2022/06/11 11:03:14;;;;;;;2.13;1.20;;;;;;;;;;5063460;28;20261;-54
2022/06/11 11:05:44;;;;;;;2.47;1.30;;;;;;;;;;5048729;28;20247;-54
2022/06/11 11:08:12;;;;;;;3.95;1.77;;;;;;;;;;5060910;28;20743;-54
2022/06/11 11:10:42;;;;;;;2.90;1.27;;;;;;;;;;5061723;28;20231;-53
2022/06/11 11:13:15;;;;;;;1.95;1.25;;;;;;;;;;5060526;28;20227;-55
2022/06/11 11:15:45;;;;;;;2.03;1.27;;;;;;;;;;5063949;28;20258;-56
2022/06/11 11:18:17;;;;;;;2.05;1.40;;;;;;;;;;5067975;28;20266;-54
2022/06/11 11:20:44;;;;;;;1.70;1.40;;;;;;;;;;5065183;28;20231;-53
2022/06/11 11:23:16;;;;;;;2.60;0.95;;;;;;;;;;5064469;28;20227;-55
2022/06/11 11:25:44;;;;;;;2.58;1.35;;;;;;;;;;5065578;28;20227;-55
2022/06/11 11:28:17;;;;;;;1.67;1.52;;;;;;;;;;5062219;28;20639;-54
2022/06/11 11:30:45;;;;;;;4.85;1.60;;;;;;;;;;5065502;28;20237;-54
2022/06/11 11:33:12;;;;;;;5.03;1.85;;;;;;;;;;5067207;28;20290;-55
2022/06/11 11:35:40;;;;;;;1.67;1.30;;;;;;;;;;5067814;28;20235;-55
2022/06/11 11:38:13;;;;;;;1.30;1.20;;;;;;;;;;5067423;28;20246;-55
2022/06/11 11:40:49;;;;;;;2.72;1.30;;;;;;;;;;5061957;28;20236;-54
2022/06/11 11:43:18;;;;;;;2.38;1.25;;;;;;;;;;5058639;28;20234;-54
2022/06/11 11:45:47;;;;;;;2.80;1.20;;;;;;;;;;5066132;28;20318;-54
2022/06/11 11:48:15;;;;;;;2.15;1.35;;;;;;;;;;5066714;28;20227;-54
2022/06/11 11:50:42;;;;;;;3.05;1.70;;;;;;;;;;5064839;28;20226;-55
2022/06/11 11:53:14;;;;;;;1.98;1.20;;;;;;;;;;5066139;28;20241;-54
2022/06/11 11:55:43;;;;;;;3.85;1.55;;;;;;;;;;5064810;28;20613;-54
2022/06/11 11:58:15;;;;;;;2.15;1.10;;;;;;;;;;5066673;28;20219;-56
2022/06/11 12:00:42;;;;;;;1.80;1.38;;;;;;;;;;5062802;28;20236;-53
2022/06/11 12:03:18;;;;;;;3.30;1.48;;;;;;;;;;5065939;28;20788;-54
2022/06/11 12:05:48;;;;;;;1.98;1.10;;;;;;;;;;5061022;28;20737;-55
2022/06/11 12:08:18;;;;;;;0.90;0.85;;;;;;;;;;5064198;28;20241;-54
2022/06/11 12:10:47;;;;;;;2.55;1.25;;;;;;;;;;5065255;28;20227;-54
2022/06/11 12:13:21;;;;;;;2.35;1.50;;;;;;;;;;5064029;28;20631;-54
2022/06/11 12:15:50;;;;;;;2.47;1.42;;;;;;;;;;5064594;28;20651;-54
2022/06/11 12:18:21;;;;;;;1.52;1.42;;;;;;;;;;5063393;28;20235;-55
2022/06/11 12:20:50;;;;;;;1.92;1.45;;;;;;;;;;5064043;28;20243;-54
2022/06/11 12:23:22;;;;;;;2.25;1.45;;;;;;;;;;5066593;28;20239;-54
2022/06/11 12:25:50;;;;;;;7.00;2.80;;;;;;;;;;5064792;28;20234;-54
2022/06/11 12:28:23;;;;;;;5.60;1.95;;;;;;;;;;5062415;28;20258;-54
2022/06/11 12:30:50;;;;;;;3.22;2.53;;;;;;;;;;5064124;28;20255;-54
2022/06/11 12:33:17;;;;;;;4.80;2.30;;;;;;;;;;5065369;28;20239;-54
2022/06/11 12:35:47;;;;;;;7.22;2.80;;;;;;;;;;5062383;28;20239;-55
2022/06/11 12:38:16;;;;;;;7.85;2.53;;;;;;;;;;5065888;28;20235;-55
2022/06/11 12:40:46;;;;;;;3.13;1.92;;;;;;;;;;5066046;28;20284;-56
2022/06/11 12:43:19;;;;;;;3.20;2.70;;;;;;;;;;5064651;28;20267;-54
2022/06/11 12:45:50;;;;;;;4.47;2.17;;;;;;;;;;5064183;28;20237;-54
2022/06/11 12:48:27;;;;;;;4.82;2.10;;;;;;;;;;5062499;28;20235;-55
2022/06/11 12:50:58;;;;;;;5.47;2.25;;;;;;;;;;5062674;28;20247;-54
2022/06/11 12:53:31;;;;;;;3.85;1.95;;;;;;;;;;5064325;28;20733;-55
2022/06/11 12:56:10;;;;;;;4.60;2.05;;;;;;;;;;5058405;28;20228;-54
2022/06/11 12:58:44;;;;;;;2.13;1.90;;;;;;;;;;5065393;28;20321;-54
2022/06/11 13:01:14;;;;;;;4.30;2.42;;;;;;;;;;5047366;28;20227;-54
2022/06/11 13:03:56;;;;;;;5.05;2.00;;;;;;;;;;5064634;28;20238;-55
2022/06/11 13:06:33;;;;;;;5.10;1.75;;;;;;;;;;5064064;28;20235;-54
2022/06/11 13:09:07;;;;;;;2.60;2.03;;;;;;;;;;5062065;28;20246;-55
2022/06/11 13:11:38;;;;;;;2.17;1.92;;;;;;;;;;5060888;28;20231;-62
2022/06/11 13:14:23;;;;;;;3.58;2.10;;;;;;;;;;5062351;28;20238;-54
2022/06/11 13:16:56;;;;;;;3.45;1.90;;;;;;;;;;5062671;28;20634;-54
2022/06/11 13:19:28;;;;;;;5.47;2.00;;;;;;;;;;5060275;28;20227;-67
2022/06/11 13:22:00;;;;;;;3.60;1.60;;;;;;;;;;5063962;28;20238;-54
2022/06/11 13:24:34;;;;;;;3.42;1.75;;;;;;;;;;5064449;28;20231;-54
2022/06/11 13:27:04;;;;;;;5.35;2.55;;;;;;;;;;5061752;28;20234;-54
2022/06/11 13:29:37;;;;;;;2.53;1.80;;;;;;;;;;5057944;28;20908;-54
2022/06/11 13:32:10;;;;;;;2.35;2.15;;;;;;;;;;5056263;28;20227;-55
2022/06/11 13:34:41;;;;;;;4.47;2.10;;;;;;;;;;5065650;28;20652;-53
2022/06/11 13:37:21;;;;;;;4.20;2.13;;;;;;;;;;5064806;28;20292;-54
2022/06/11 13:39:56;;;;;;;3.85;2.10;;;;;;;;;;5063414;28;20713;-53
2022/06/11 13:42:27;;;;;;;3.28;2.28;;;;;;;;;;5064450;28;20249;-54
2022/06/11 13:45:12;;;;;;;5.22;2.35;;;;;;;;;;5062785;28;20234;-53
2022/06/11 13:47:54;;;;;;;3.83;2.20;;;;;;;;;;5059765;28;20292;-56
2022/06/11 13:50:29;;;;;;;4.38;2.08;;;;;;;;;;5057636;28;20375;-54
2022/06/11 13:55:48;;;;;;;2.13;1.85;;;;;;;;;;5064314;28;20241;-53
2022/06/11 13:58:24;;;;;;;2.35;1.98;;;;;;;;;;5061585;28;20235;-54
2022/06/11 14:01:00;;;;;;;2.10;1.77;;;;;;;;;;5058065;28;20222;-54
2022/06/11 14:03:45;;;;;;;6.22;1.90;;;;;;;;;;5062904;28;20704;-55
2022/06/11 14:06:14;;;;;;;1.85;1.13;;;;;;;;;;5046972;28;20235;-54
2022/06/11 14:08:43;;;;;;;2.25;1.52;;;;;;;;;;5062016;28;20642;-54
2022/06/11 14:11:39;;;;;;;1.55;1.05;;;;;;;;;;5067026;28;20230;-54
2022/06/11 14:14:24;;;;;;;1.65;1.10;;;;;;;;;;5064955;28;20231;-54
2022/06/11 14:16:52;;;;;;;3.88;1.30;;;;;;;;;;5062285;28;20941;-58
2022/06/11 14:19:41;;;;;;;1.35;1.02;;;;;;;;;;5061753;28;20239;-56
2022/06/11 14:22:23;;;;;;;3.65;1.17;;;;;;;;;;5061535;28;20223;-55
2022/06/11 14:25:00;;;;;;;2.65;1.48;;;;;;;;;;5058814;28;20234;-55
2022/06/11 14:27:31;;;;;;;0.90;0.90;;;;;;;;;;5064023;28;20832;-54
2022/06/11 14:30:17;;;;;;;1.60;1.30;;;;;;;;;;5061753;28;20238;-55
2022/06/11 14:32:44;;;;;;;2.30;1.10;;;;;;;;;;5059538;28;20705;-56
2022/06/11 14:35:17;;;;;;;2.83;1.30;;;;;;;;;;5059751;28;20223;-57
2022/06/11 14:37:43;;;;;;;2.58;1.27;;;;;;;;;;5064128;28;20237;-72
2022/06/11 14:40:20;;;;;;;2.45;1.35;;;;;;;;;;5064852;28;20237;-56
2022/06/11 14:43:01;;;;;;;3.10;1.20;;;;;;;;;;5062631;28;20230;-55
2022/06/11 14:45:42;;;;;;;4.80;1.40;;;;;;;;;;5066348;28;20231;-54
2022/06/11 14:48:12;;;;;;;1.70;1.40;;;;;;;;;;5060483;28;20225;-55
2022/06/11 14:50:44;;;;;;;5.95;1.75;;;;;;;;;;5053952;28;20237;-54
2022/06/11 14:53:23;;;;;;;2.35;1.23;;;;;;;;;;5064426;28;20230;-54
2022/06/11 14:55:53;;;;;;;1.95;1.35;;;;;;;;;;5065164;28;20235;-55
2022/06/11 14:58:40;;;;;;;2.40;1.40;;;;;;;;;;5064342;28;20231;-53
2022/06/11 15:01:25;;;;;;;3.47;1.50;;;;;;;;;;5056960;28;20309;-54